Aérodrome :
LOGIN :

S'inscrire | Disclaimer

   EN    FR    IT 

 










Légende :    VFR   VFR Marginal   IFR   IFR Intensif   IFR Très Intensif
Visi : 
Plafond : 
>= 8 km
>= 3000ft
5 à 8 km
1000 à 3000 ft
1500m à 5 km
500 à 1000 ft
800 à 1500m
200 à 500 ft
< 800m
< 200 ft
Symboles :   Orages  Brouillard  Fortes neiges  Fortes précipitations  Vent > 20 kt
SIGMETs :   Divers  Orages  Givrage  Turbulence  Onde Orograph.  Cendres Volcan.






- Altitude de l'aérodrome : 34 ft
- Code IATA : BLK


EGNH - Blackpool

DERNIER METAR :
  • 051920Z 25011KT 9999 FEW021 SCT039 18/16 Q1008

METARs EXPIRÉS :
  • 051850Z 25010KT 9999 FEW021 SCT045 18/17 Q1008
  • 051820Z 24014KT 9999 FEW012 SCT022 20/17 Q1007
  • 051750Z 23015KT 9999 FEW011 BKN023 19/17 Q1007
  • 051720Z 22013KT 9999 VCSH FEW010 BKN029 19/17 Q1007
  • 051650Z 20013KT 9999 VCSH FEW010 BKN025 19/17 Q1006

TAF AMD TAF EGNH
Valide du 05 à 18h jusqu'au 05 à 20h UTC


051803Z 0518/0520 22012KT 9999 BKN015
TEMPO 0518/0520 8000 -RADZ BKN010
ATIS : +44 1253 343 434 (x8315)



MET'MAP, la Météo Aéronautique d'un coup d'oeil ! - Copyright ORBIFLY Décembre 2007 - Disclaimer

ORBIFLY MET'MAP TEAM :

Programmation & Développement : Alexandra Zaïnal
Sur une idée originale de : Baudouin d'Aumeries
Assistance à la programmation : Marc-Olivier Méhu
Soutien technique & logistique : Manuel Goepfert

Contact : metmap@orbifly.com




SOURCES & CREDITS :

   NOAA